Time;durP1;ratioP1;P1;durP2;ratioP2;P2;SDS_P1;SDS_P2;PMS_P1;PMS_P2;Temp;Humidity;BMP_temperature;BMP_pressure;BME280_temperature;BME280_humidity;BME280_pressure;Samples;Min_cycle;Max_cycle;Signal;HPM_P1;HPM_P2
2022/11/18 00:02:21;;;;;;;178.93;74.30;;;;;;;;;;5044806;28;20210;-38
2022/11/18 00:04:47;;;;;;;178.17;73.13;;;;;;;;;;5050647;28;20197;-37
2022/11/18 00:07:13;;;;;;;196.80;76.03;;;;;;;;;;5048364;28;20177;-37
2022/11/18 00:09:39;;;;;;;164.57;70.73;;;;;;;;;;5042357;28;20778;-37
2022/11/18 00:14:50;;;;;;;154.93;68.23;;;;;;;;;;5046128;28;20724;-37
2022/11/18 00:17:16;;;;;;;147.33;64.97;;;;;;;;;;5044893;28;20186;-37
2022/11/18 00:19:42;;;;;;;186.83;74.77;;;;;;;;;;5046439;28;20499;-38
2022/11/18 00:22:10;;;;;;;206.40;78.23;;;;;;;;;;5047195;28;20880;-37
2022/11/18 00:24:37;;;;;;;205.17;79.90;;;;;;;;;;5047950;28;20756;-37
2022/11/18 00:27:03;;;;;;;201.67;75.53;;;;;;;;;;5049325;28;20188;-37
2022/11/18 00:29:30;;;;;;;211.23;77.10;;;;;;;;;;5052256;28;20182;-37
2022/11/18 00:31:56;;;;;;;225.10;79.87;;;;;;;;;;5055040;28;20290;-38
2022/11/18 00:34:22;;;;;;;232.97;82.47;;;;;;;;;;5054804;28;21020;-37
2022/11/18 00:36:49;;;;;;;263.30;87.13;;;;;;;;;;5055447;28;20178;-37
2022/11/18 00:39:16;;;;;;;227.27;82.57;;;;;;;;;;5055970;28;20185;-37
2022/11/18 00:44:27;;;;;;;294.57;92.87;;;;;;;;;;5054074;28;20189;-37
2022/11/18 00:46:53;;;;;;;263.47;89.90;;;;;;;;;;5055553;28;20195;-38
2022/11/18 00:49:19;;;;;;;247.43;87.03;;;;;;;;;;5057029;28;20183;-37
2022/11/18 00:51:46;;;;;;;241.13;89.00;;;;;;;;;;5053245;28;20663;-37
2022/11/18 00:54:12;;;;;;;315.17;95.17;;;;;;;;;;5054503;28;20170;-38
2022/11/18 00:56:38;;;;;;;219.77;81.93;;;;;;;;;;5055728;28;20209;-38
2022/11/18 00:59:04;;;;;;;337.60;98.70;;;;;;;;;;5057934;28;20187;-37
2022/11/18 01:01:30;;;;;;;201.00;78.73;;;;;;;;;;5053984;28;20416;-37
2022/11/18 01:03:57;;;;;;;197.70;79.60;;;;;;;;;;5055601;28;20557;-37
2022/11/18 01:06:23;;;;;;;211.23;84.47;;;;;;;;;;5053591;28;20282;-38
2022/11/18 01:08:51;;;;;;;226.70;85.97;;;;;;;;;;5055168;28;20198;-37
2022/11/18 01:14:02;;;;;;;305.83;94.47;;;;;;;;;;5051848;28;20190;-38
2022/11/18 01:16:29;;;;;;;296.57;94.07;;;;;;;;;;5055100;28;21053;-37
2022/11/18 01:18:55;;;;;;;278.80;92.93;;;;;;;;;;5052838;28;20686;-38
2022/11/18 01:21:21;;;;;;;291.10;95.87;;;;;;;;;;5051754;28;20182;-37
2022/11/18 01:23:48;;;;;;;305.30;98.00;;;;;;;;;;5055684;28;20175;-38
2022/11/18 01:26:15;;;;;;;218.20;88.40;;;;;;;;;;5058937;28;20573;-37
2022/11/18 01:28:41;;;;;;;374.33;104.57;;;;;;;;;;5050200;28;20210;-37
2022/11/18 01:31:11;;;;;;;276.43;91.73;;;;;;;;;;5052778;28;20179;-37
2022/11/18 01:33:38;;;;;;;461.33;112.70;;;;;;;;;;5055952;28;20665;-37
2022/11/18 01:36:04;;;;;;;325.43;101.27;;;;;;;;;;5055711;28;20592;-38
2022/11/18 01:38:30;;;;;;;267.80;90.90;;;;;;;;;;5051736;28;20213;-38
2022/11/18 01:40:57;;;;;;;379.30;105.07;;;;;;;;;;5056679;28;20281;-38
2022/11/18 01:43:23;;;;;;;196.03;79.97;;;;;;;;;;5053486;28;20203;-38
2022/11/18 01:45:50;;;;;;;230.07;86.07;;;;;;;;;;5047796;28;20284;-37
2022/11/18 01:48:16;;;;;;;187.47;78.47;;;;;;;;;;5043728;28;20842;-38
2022/11/18 01:50:47;;;;;;;185.30;79.30;;;;;;;;;;5046140;28;20627;-37
2022/11/18 01:53:19;;;;;;;258.63;91.23;;;;;;;;;;5035298;28;20203;-38
2022/11/18 01:55:47;;;;;;;249.60;93.00;;;;;;;;;;5037107;28;22550;-37
2022/11/18 01:58:28;;;;;;;195.27;85.93;;;;;;;;;;5030801;28;20693;-38
2022/11/18 02:00:54;;;;;;;190.43;82.73;;;;;;;;;;5036487;28;20289;-38
2022/11/18 02:03:21;;;;;;;199.50;84.87;;;;;;;;;;5036059;28;20639;-38
2022/11/18 02:05:49;;;;;;;207.57;85.57;;;;;;;;;;5031718;28;20251;-38
2022/11/18 02:08:16;;;;;;;219.53;87.40;;;;;;;;;;5037327;28;20188;-38
2022/11/18 02:10:42;;;;;;;185.23;78.13;;;;;;;;;;5035140;28;20187;-37
2022/11/18 02:13:08;;;;;;;218.27;84.17;;;;;;;;;;5025382;28;20997;-37
2022/11/18 02:15:37;;;;;;;224.00;84.97;;;;;;;;;;5035516;28;21440;-37
2022/11/18 02:18:16;;;;;;;201.23;80.20;;;;;;;;;;5033927;28;21072;-38
2022/11/18 02:20:43;;;;;;;210.97;78.83;;;;;;;;;;5030621;28;20175;-37
2022/11/18 02:23:28;;;;;;;198.73;77.73;;;;;;;;;;5035874;28;20199;-37
2022/11/18 02:26:13;;;;;;;216.80;78.47;;;;;;;;;;5043083;28;20616;-38
2022/11/18 02:28:58;;;;;;;205.40;80.63;;;;;;;;;;5036244;28;20179;-37
2022/11/18 02:31:30;;;;;;;180.80;76.00;;;;;;;;;;5037593;28;21603;-38
2022/11/18 02:34:02;;;;;;;171.10;73.80;;;;;;;;;;5039749;28;20175;-38
2022/11/18 02:36:35;;;;;;;208.57;83.17;;;;;;;;;;5044781;28;20269;-38
2022/11/18 02:39:04;;;;;;;187.73;76.57;;;;;;;;;;5041646;28;20206;-37
2022/11/18 02:41:33;;;;;;;236.37;83.80;;;;;;;;;;5040993;28;20270;-38
2022/11/18 02:44:03;;;;;;;247.00;85.83;;;;;;;;;;5033549;28;20798;-38
2022/11/18 02:46:31;;;;;;;196.60;77.13;;;;;;;;;;5018379;28;20183;-38
2022/11/18 02:48:58;;;;;;;275.83;86.30;;;;;;;;;;5038924;28;20218;-38
2022/11/18 02:51:26;;;;;;;224.67;84.17;;;;;;;;;;5034280;28;20666;-37
2022/11/18 02:53:55;;;;;;;200.67;78.20;;;;;;;;;;5032235;28;20235;-38
2022/11/18 02:56:21;;;;;;;210.77;78.13;;;;;;;;;;5042842;28;20175;-38
2022/11/18 02:58:47;;;;;;;182.03;73.77;;;;;;;;;;5031926;28;20720;-38
2022/11/18 03:01:18;;;;;;;201.90;79.43;;;;;;;;;;5031446;28;20182;-38
2022/11/18 03:03:44;;;;;;;189.03;75.07;;;;;;;;;;5035468;28;20198;-38
2022/11/18 03:06:29;;;;;;;177.47;73.13;;;;;;;;;;5033260;28;20256;-38
2022/11/18 03:09:00;;;;;;;204.67;77.13;;;;;;;;;;5031119;28;20266;-38
2022/11/18 03:11:28;;;;;;;212.07;79.20;;;;;;;;;;5036603;28;20672;-38
2022/11/18 03:14:00;;;;;;;300.70;89.23;;;;;;;;;;5039289;28;20750;-38
2022/11/18 03:16:29;;;;;;;269.37;85.07;;;;;;;;;;5040063;28;20268;-38
2022/11/18 03:18:58;;;;;;;315.87;92.77;;;;;;;;;;5045349;28;20178;-37
2022/11/18 03:21:31;;;;;;;323.00;96.07;;;;;;;;;;5040391;28;20615;-37
2022/11/18 03:24:00;;;;;;;350.73;106.57;;;;;;;;;;5030713;28;20209;-38
2022/11/18 03:26:31;;;;;;;338.73;106.43;;;;;;;;;;5036800;28;20252;-37
2022/11/18 03:29:00;;;;;;;376.20;104.17;;;;;;;;;;5048904;28;20577;-38
2022/11/18 03:31:39;;;;;;;309.47;96.30;;;;;;;;;;5039136;28;20856;-37
2022/11/18 03:34:07;;;;;;;253.50;89.30;;;;;;;;;;5040510;28;20203;-37
2022/11/18 03:36:35;;;;;;;347.70;97.33;;;;;;;;;;5043114;28;20507;-37
2022/11/18 03:39:02;;;;;;;240.77;84.07;;;;;;;;;;5046141;28;20772;-38
2022/11/18 03:41:30;;;;;;;290.43;94.33;;;;;;;;;;5044459;28;20967;-38
2022/11/18 03:43:58;;;;;;;292.97;90.17;;;;;;;;;;5040296;28;20186;-37
2022/11/18 03:46:37;;;;;;;294.70;93.77;;;;;;;;;;5038565;28;20690;-38
2022/11/18 03:49:04;;;;;;;214.93;81.83;;;;;;;;;;5046245;28;20182;-38
2022/11/18 03:51:40;;;;;;;279.50;92.67;;;;;;;;;;5045183;28;20271;-37
2022/11/18 03:54:09;;;;;;;198.97;81.07;;;;;;;;;;5042119;28;20178;-37
2022/11/18 03:56:37;;;;;;;232.93;84.17;;;;;;;;;;5042350;28;20199;-38
2022/11/18 03:59:06;;;;;;;268.47;90.50;;;;;;;;;;5044417;28;20814;-38
2022/11/18 04:01:38;;;;;;;208.90;78.43;;;;;;;;;;5037320;28;20970;-37
2022/11/18 04:04:04;;;;;;;251.93;85.13;;;;;;;;;;5031922;28;20424;-37
2022/11/18 04:06:35;;;;;;;284.73;89.97;;;;;;;;;;5033290;28;21043;-37
2022/11/18 04:09:06;;;;;;;276.97;89.00;;;;;;;;;;5040518;28;20159;-36
2022/11/18 04:14:20;;;;;;;277.87;89.63;;;;;;;;;;5039386;28;20228;-37
2022/11/18 04:16:49;;;;;;;216.57;83.40;;;;;;;;;;5038288;28;20185;-37
2022/11/18 04:19:15;;;;;;;272.83;93.03;;;;;;;;;;5047382;28;20916;-36
2022/11/18 04:21:41;;;;;;;223.17;86.40;;;;;;;;;;5045402;28;20268;-36
2022/11/18 04:24:08;;;;;;;325.47;96.97;;;;;;;;;;5047318;28;20536;-36
2022/11/18 04:26:34;;;;;;;286.83;93.87;;;;;;;;;;5044666;28;20175;-36
2022/11/18 04:29:00;;;;;;;172.13;76.03;;;;;;;;;;5041406;28;20214;-36
2022/11/18 04:31:26;;;;;;;182.97;78.03;;;;;;;;;;5040663;28;20545;-36
2022/11/18 04:33:52;;;;;;;202.20;81.20;;;;;;;;;;5050471;28;20307;-36
2022/11/18 04:36:18;;;;;;;224.77;85.30;;;;;;;;;;5038312;28;20170;-36
2022/11/18 04:38:45;;;;;;;244.40;85.50;;;;;;;;;;5035940;28;20990;-35
2022/11/18 04:41:11;;;;;;;272.73;90.07;;;;;;;;;;5034524;28;20579;-35
2022/11/18 04:43:37;;;;;;;249.83;87.40;;;;;;;;;;5040268;28;20217;-36
2022/11/18 04:46:03;;;;;;;232.23;84.83;;;;;;;;;;5039395;28;20579;-36
2022/11/18 04:48:29;;;;;;;220.80;84.57;;;;;;;;;;5043203;28;20191;-36
2022/11/18 04:51:02;;;;;;;236.07;85.87;;;;;;;;;;5036820;28;20171;-35
2022/11/18 04:53:28;;;;;;;168.43;75.03;;;;;;;;;;5036400;28;20708;-37
2022/11/18 04:55:55;;;;;;;189.63;79.70;;;;;;;;;;5018824;28;20655;-36
2022/11/18 04:58:21;;;;;;;147.13;71.47;;;;;;;;;;5039920;28;20263;-36
2022/11/18 05:00:47;;;;;;;199.00;81.50;;;;;;;;;;5041601;28;20293;-36
2022/11/18 05:03:14;;;;;;;154.17;72.30;;;;;;;;;;5032259;28;20523;-35
2022/11/18 05:05:40;;;;;;;154.93;74.13;;;;;;;;;;5036838;28;20187;-36
2022/11/18 05:08:06;;;;;;;210.90;83.13;;;;;;;;;;5032294;28;20179;-35
2022/11/18 05:10:32;;;;;;;167.30;77.47;;;;;;;;;;5031573;28;20175;-35
2022/11/18 05:12:58;;;;;;;150.80;72.07;;;;;;;;;;5031506;28;20576;-35
2022/11/18 05:15:24;;;;;;;255.33;88.93;;;;;;;;;;5040979;28;20190;-35
2022/11/18 05:17:51;;;;;;;176.47;76.10;;;;;;;;;;5036906;28;20876;-35
2022/11/18 05:20:17;;;;;;;168.60;75.17;;;;;;;;;;5039630;28;20179;-35
2022/11/18 05:22:43;;;;;;;245.50;87.87;;;;;;;;;;5038237;28;20214;-35
2022/11/18 05:25:09;;;;;;;237.87;86.93;;;;;;;;;;5051242;28;20179;-36
2022/11/18 05:27:35;;;;;;;224.17;87.17;;;;;;;;;;5044436;28;20175;-35
2022/11/18 05:30:01;;;;;;;161.20;73.50;;;;;;;;;;5041323;28;20703;-35
2022/11/18 05:32:27;;;;;;;170.10;72.07;;;;;;;;;;5044148;28;21628;-36
2022/11/18 05:34:53;;;;;;;137.13;65.13;;;;;;;;;;5050278;28;20225;-35
2022/11/18 05:37:19;;;;;;;156.57;67.13;;;;;;;;;;5047011;28;20547;-35
2022/11/18 05:39:45;;;;;;;176.20;73.17;;;;;;;;;;5050527;28;20175;-35
2022/11/18 05:44:57;;;;;;;196.50;73.80;;;;;;;;;;5048202;28;20229;-36
2022/11/18 05:47:24;;;;;;;192.50;75.40;;;;;;;;;;5051349;28;20225;-35
2022/11/18 05:49:50;;;;;;;169.23;70.30;;;;;;;;;;5040040;28;20797;-35
2022/11/18 05:52:16;;;;;;;204.77;73.93;;;;;;;;;;5039034;28;20183;-35
2022/11/18 05:54:44;;;;;;;151.97;68.60;;;;;;;;;;5020740;28;20186;-35
2022/11/18 05:57:10;;;;;;;154.90;67.87;;;;;;;;;;5042470;28;20183;-36
2022/11/18 05:59:36;;;;;;;145.63;65.07;;;;;;;;;;5036788;28;20868;-37
2022/11/18 06:02:05;;;;;;;147.77;66.50;;;;;;;;;;5034915;28;20216;-35
2022/11/18 06:04:34;;;;;;;133.83;63.37;;;;;;;;;;5031847;28;20201;-35
2022/11/18 06:07:03;;;;;;;222.60;77.43;;;;;;;;;;5040023;28;20589;-36
2022/11/18 06:09:31;;;;;;;191.93;72.57;;;;;;;;;;5037066;28;20171;-35
2022/11/18 06:11:58;;;;;;;133.47;61.73;;;;;;;;;;5007948;28;20234;-36
2022/11/18 06:14:24;;;;;;;151.50;64.37;;;;;;;;;;5026706;28;20495;-35
2022/11/18 06:16:54;;;;;;;198.40;71.20;;;;;;;;;;5036079;28;20810;-34
2022/11/18 06:19:20;;;;;;;168.17;67.53;;;;;;;;;;5039867;28;20179;-35
2022/11/18 06:21:46;;;;;;;216.47;73.20;;;;;;;;;;5033732;28;20616;-36
2022/11/18 06:24:13;;;;;;;177.77;68.47;;;;;;;;;;5034406;28;20704;-36
2022/11/18 06:26:40;;;;;;;152.67;63.10;;;;;;;;;;5037030;28;20186;-37
2022/11/18 06:29:07;;;;;;;143.63;59.77;;;;;;;;;;5041192;28;20179;-36
2022/11/18 06:31:33;;;;;;;159.67;62.73;;;;;;;;;;5037512;28;20175;-36
2022/11/18 06:34:00;;;;;;;140.17;58.37;;;;;;;;;;5044495;28;20179;-36
2022/11/18 06:36:26;;;;;;;142.63;59.70;;;;;;;;;;5029983;28;21143;-36
2022/11/18 06:38:52;;;;;;;138.33;60.40;;;;;;;;;;5030027;28;20209;-36
2022/11/18 06:41:18;;;;;;;157.77;66.00;;;;;;;;;;5044969;28;20739;-36
2022/11/18 06:43:44;;;;;;;139.27;60.63;;;;;;;;;;5045098;28;20607;-36
2022/11/18 06:48:59;;;;;;;159.63;63.77;;;;;;;;;;5047655;28;20193;-36
2022/11/18 06:51:25;;;;;;;146.07;60.97;;;;;;;;;;5041875;28;21016;-35
2022/11/18 06:53:52;;;;;;;152.87;63.47;;;;;;;;;;5042394;28;20183;-37
2022/11/18 06:56:19;;;;;;;145.47;61.17;;;;;;;;;;5018725;28;20386;-37
2022/11/18 06:58:46;;;;;;;148.27;62.70;;;;;;;;;;5035947;28;20185;-36
2022/11/18 07:01:13;;;;;;;145.03;64.87;;;;;;;;;;5038887;28;20243;-36
2022/11/18 07:03:43;;;;;;;136.50;62.57;;;;;;;;;;5045003;28;20198;-36
2022/11/18 07:06:10;;;;;;;142.23;64.33;;;;;;;;;;5044545;28;20690;-37
2022/11/18 07:08:37;;;;;;;133.70;64.53;;;;;;;;;;5051227;28;20181;-36
2022/11/18 07:11:07;;;;;;;147.30;70.40;;;;;;;;;;5053969;28;20171;-38
2022/11/18 07:13:33;;;;;;;128.77;66.40;;;;;;;;;;5049579;28;20879;-36
2022/11/18 07:16:19;;;;;;;136.13;67.80;;;;;;;;;;5047678;28;20861;-36
2022/11/18 07:18:46;;;;;;;150.40;71.03;;;;;;;;;;5024555;28;20719;-36
2022/11/18 07:21:13;;;;;;;126.17;69.13;;;;;;;;;;5048067;28;20236;-36
2022/11/18 07:23:39;;;;;;;135.70;67.70;;;;;;;;;;5045361;28;20209;-37
2022/11/18 07:26:06;;;;;;;166.60;78.03;;;;;;;;;;5051020;28;20425;-37
2022/11/18 07:28:32;;;;;;;137.13;72.03;;;;;;;;;;5045943;28;20524;-36
2022/11/18 07:31:02;;;;;;;121.80;66.70;;;;;;;;;;5048960;28;21246;-37
2022/11/18 07:33:28;;;;;;;120.30;65.63;;;;;;;;;;5052251;28;20183;-36
2022/11/18 07:35:54;;;;;;;118.10;65.27;;;;;;;;;;5051834;28;20729;-37
2022/11/18 07:38:20;;;;;;;131.13;69.50;;;;;;;;;;5048206;28;20801;-36
2022/11/18 07:40:46;;;;;;;108.20;60.37;;;;;;;;;;5045419;28;21951;-36
2022/11/18 07:43:13;;;;;;;103.50;58.90;;;;;;;;;;5050779;28;20718;-36
2022/11/18 07:45:39;;;;;;;103.63;59.40;;;;;;;;;;5053676;28;20252;-37
2022/11/18 07:48:05;;;;;;;100.83;58.93;;;;;;;;;;5050739;28;20635;-36
2022/11/18 07:50:31;;;;;;;142.07;68.73;;;;;;;;;;5027126;28;20189;-38
2022/11/18 07:52:57;;;;;;;103.03;58.70;;;;;;;;;;5049095;28;20179;-37
2022/11/18 07:55:23;;;;;;;140.57;71.43;;;;;;;;;;5044040;28;20175;-36
2022/11/18 07:57:49;;;;;;;125.37;67.90;;;;;;;;;;5051495;28;20193;-36
2022/11/18 08:00:16;;;;;;;122.27;67.30;;;;;;;;;;5047711;28;20256;-37
2022/11/18 08:02:42;;;;;;;106.10;60.07;;;;;;;;;;5046495;28;21178;-38
2022/11/18 08:05:09;;;;;;;111.50;62.13;;;;;;;;;;5050717;28;20569;-37
2022/11/18 08:07:35;;;;;;;104.23;59.80;;;;;;;;;;5049692;28;20702;-37
2022/11/18 08:10:04;;;;;;;120.67;63.57;;;;;;;;;;5047969;28;20209;-37
2022/11/18 08:12:30;;;;;;;132.93;65.70;;;;;;;;;;5048143;28;20675;-38
2022/11/18 08:14:56;;;;;;;108.17;60.97;;;;;;;;;;5052366;28;20564;-38
2022/11/18 08:17:22;;;;;;;100.30;56.23;;;;;;;;;;5048559;28;20179;-38
2022/11/18 08:19:48;;;;;;;107.00;59.40;;;;;;;;;;5046244;28;20171;-37
2022/11/18 08:22:17;;;;;;;99.30;56.03;;;;;;;;;;5047986;28;20736;-38
2022/11/18 08:24:44;;;;;;;117.40;63.63;;;;;;;;;;5046939;28;20211;-37
2022/11/18 08:27:10;;;;;;;104.27;58.20;;;;;;;;;;5047563;28;20289;-38
2022/11/18 08:29:36;;;;;;;104.37;57.57;;;;;;;;;;5051167;28;20783;-36
2022/11/18 08:32:02;;;;;;;100.83;57.20;;;;;;;;;;5050503;28;20175;-37
2022/11/18 08:34:29;;;;;;;120.03;62.00;;;;;;;;;;5045083;28;20182;-37
2022/11/18 08:36:55;;;;;;;115.87;60.80;;;;;;;;;;5046443;28;20183;-37
2022/11/18 08:39:21;;;;;;;100.97;56.93;;;;;;;;;;5052482;28;20826;-37
2022/11/18 08:41:47;;;;;;;99.50;57.97;;;;;;;;;;5050842;28;20498;-38
2022/11/18 08:44:14;;;;;;;99.83;56.40;;;;;;;;;;5047076;28;20171;-37
2022/11/18 08:46:41;;;;;;;99.97;56.40;;;;;;;;;;5044571;28;20175;-38
2022/11/18 08:49:07;;;;;;;104.07;55.93;;;;;;;;;;5047473;28;20181;-37
2022/11/18 08:51:33;;;;;;;106.27;57.00;;;;;;;;;;5045956;28;20182;-37
2022/11/18 08:53:59;;;;;;;109.77;57.10;;;;;;;;;;5049187;28;20587;-37
2022/11/18 08:56:26;;;;;;;102.20;55.03;;;;;;;;;;5046918;28;20221;-38
2022/11/18 08:58:52;;;;;;;95.73;54.70;;;;;;;;;;5052042;28;20175;-38
2022/11/18 09:01:18;;;;;;;110.53;57.67;;;;;;;;;;5048892;28;20547;-38
2022/11/18 09:03:46;;;;;;;97.50;53.80;;;;;;;;;;5049806;28;20317;-38
2022/11/18 09:06:23;;;;;;;105.70;58.27;;;;;;;;;;5049409;28;20181;-38
2022/11/18 09:08:49;;;;;;;98.97;54.10;;;;;;;;;;5034353;28;20559;-38
2022/11/18 09:11:20;;;;;;;100.87;54.57;;;;;;;;;;5051346;28;21072;-38
2022/11/18 09:13:46;;;;;;;105.40;55.03;;;;;;;;;;5051945;28;20172;-38
2022/11/18 09:16:13;;;;;;;108.27;54.37;;;;;;;;;;5055447;28;20202;-37
2022/11/18 09:18:39;;;;;;;107.77;57.13;;;;;;;;;;5051367;28;20186;-38
2022/11/18 09:21:08;;;;;;;94.00;53.33;;;;;;;;;;5052061;28;20168;-38
2022/11/18 09:23:35;;;;;;;106.37;54.80;;;;;;;;;;5053704;28;20202;-38
2022/11/18 09:26:02;;;;;;;97.37;52.03;;;;;;;;;;5047801;28;20167;-38
2022/11/18 09:28:29;;;;;;;98.90;52.83;;;;;;;;;;5054736;28;20193;-38
2022/11/18 09:30:55;;;;;;;96.67;53.07;;;;;;;;;;5053359;28;20282;-37
2022/11/18 09:33:21;;;;;;;99.60;52.03;;;;;;;;;;5050703;28;20186;-37
2022/11/18 09:35:47;;;;;;;100.23;52.33;;;;;;;;;;5051582;28;20289;-38
2022/11/18 09:38:14;;;;;;;101.07;54.87;;;;;;;;;;5052112;28;20177;-38
2022/11/18 09:40:45;;;;;;;104.80;55.07;;;;;;;;;;5050280;28;20189;-38
2022/11/18 09:43:27;;;;;;;102.20;53.50;;;;;;;;;;5049650;28;20199;-38
2022/11/18 09:45:56;;;;;;;98.40;53.40;;;;;;;;;;5054129;28;20182;-38
2022/11/18 09:49:11;;;;;;;107.57;53.73;;;;;;;;;;5053133;28;20695;-38
2022/11/18 09:51:12;;;;;;;103.27;54.87;;;;;;;;;;5050841;28;20345;-38
2022/11/18 09:53:41;;;;;;;103.87;55.07;;;;;;;;;;5047288;28;20297;-38
2022/11/18 09:56:13;;;;;;;102.23;54.03;;;;;;;;;;5052480;28;20187;-39
2022/11/18 09:58:39;;;;;;;97.07;51.43;;;;;;;;;;5052764;28;20185;-38
2022/11/18 10:01:12;;;;;;;106.00;53.47;;;;;;;;;;5046407;28;20179;-38
2022/11/18 10:03:39;;;;;;;103.73;52.87;;;;;;;;;;5049274;28;20477;-38
2022/11/18 10:06:09;;;;;;;104.53;53.90;;;;;;;;;;5053376;28;20446;-38
2022/11/18 10:08:41;;;;;;;106.87;54.77;;;;;;;;;;5053879;28;20214;-37
2022/11/18 10:11:13;;;;;;;96.97;51.80;;;;;;;;;;5050475;28;20269;-37
2022/11/18 10:13:55;;;;;;;103.13;54.00;;;;;;;;;;5047282;28;20286;-38
2022/11/18 10:16:25;;;;;;;103.77;53.37;;;;;;;;;;5053826;28;20183;-38
2022/11/18 10:18:51;;;;;;;96.73;50.40;;;;;;;;;;5048360;28;20697;-38
2022/11/18 10:21:20;;;;;;;102.63;52.00;;;;;;;;;;5046721;28;20673;-38
2022/11/18 10:23:56;;;;;;;100.40;50.40;;;;;;;;;;5050526;28;20190;-38
2022/11/18 10:26:35;;;;;;;107.57;52.80;;;;;;;;;;5048480;28;20253;-38
2022/11/18 10:29:02;;;;;;;90.87;46.80;;;;;;;;;;5050031;28;20183;-38
2022/11/18 10:31:28;;;;;;;88.73;47.23;;;;;;;;;;5033049;28;20251;-38
2022/11/18 10:34:01;;;;;;;86.90;46.00;;;;;;;;;;5052977;28;21016;-38
2022/11/18 10:36:32;;;;;;;91.73;47.83;;;;;;;;;;5050745;28;20349;-38
2022/11/18 10:39:08;;;;;;;86.23;44.40;;;;;;;;;;5045226;28;20194;-37
2022/11/18 10:41:45;;;;;;;94.70;48.07;;;;;;;;;;5048317;28;20179;-37
2022/11/18 10:44:30;;;;;;;100.90;49.10;;;;;;;;;;5050967;28;20471;-38
2022/11/18 10:47:14;;;;;;;91.67;47.77;;;;;;;;;;5051546;28;20306;-38
2022/11/18 10:49:40;;;;;;;86.37;43.60;;;;;;;;;;5048271;28;20238;-38
2022/11/18 10:52:10;;;;;;;82.37;44.10;;;;;;;;;;5048676;28;20184;-37
2022/11/18 10:54:36;;;;;;;86.50;44.23;;;;;;;;;;5047859;28;20214;-38
2022/11/18 10:57:22;;;;;;;85.53;45.70;;;;;;;;;;5046464;28;20174;-37
2022/11/18 10:59:54;;;;;;;85.83;45.57;;;;;;;;;;5045240;28;20655;-37
2022/11/18 11:02:25;;;;;;;86.43;45.13;;;;;;;;;;4992295;28;20309;-37
2022/11/18 11:04:52;;;;;;;83.77;43.77;;;;;;;;;;5048535;28;20813;-38
2022/11/18 11:07:32;;;;;;;81.60;44.07;;;;;;;;;;5046556;28;20742;-38
2022/11/18 11:09:59;;;;;;;81.50;43.23;;;;;;;;;;5036408;28;20768;-37
2022/11/18 11:12:27;;;;;;;88.63;46.23;;;;;;;;;;5052018;28;20179;-38
2022/11/18 11:14:54;;;;;;;79.87;44.77;;;;;;;;;;5047131;28;20295;-37
2022/11/18 11:17:26;;;;;;;85.13;45.57;;;;;;;;;;5046399;28;20187;-38
2022/11/18 11:19:55;;;;;;;76.00;42.80;;;;;;;;;;5046813;28;20203;-37
2022/11/18 11:22:22;;;;;;;85.07;45.63;;;;;;;;;;5046184;28;20354;-37
2022/11/18 11:24:48;;;;;;;78.77;42.97;;;;;;;;;;5046406;28;20185;-38
2022/11/18 11:27:33;;;;;;;69.87;40.97;;;;;;;;;;5047757;28;20175;-37
2022/11/18 11:29:59;;;;;;;72.20;39.77;;;;;;;;;;5055475;28;20263;-38
2022/11/18 11:32:25;;;;;;;68.80;37.77;;;;;;;;;;5052812;28;20213;-38
2022/11/18 11:35:10;;;;;;;69.23;39.33;;;;;;;;;;5051039;28;20175;-38
2022/11/18 11:37:56;;;;;;;68.30;38.73;;;;;;;;;;5049332;28;20182;-38
2022/11/18 11:40:25;;;;;;;61.63;35.83;;;;;;;;;;5042660;28;21053;-38
2022/11/18 11:42:51;;;;;;;65.70;36.60;;;;;;;;;;5048547;28;20201;-38
2022/11/18 11:45:17;;;;;;;56.13;34.33;;;;;;;;;;5051725;28;20171;-38
2022/11/18 11:47:56;;;;;;;63.60;35.23;;;;;;;;;;5048825;28;20237;-38
2022/11/18 11:50:25;;;;;;;58.00;33.33;;;;;;;;;;5052073;28;20179;-38
2022/11/18 11:53:10;;;;;;;62.60;34.20;;;;;;;;;;5051429;28;20244;-37
2022/11/18 11:55:36;;;;;;;54.33;31.30;;;;;;;;;;5052439;28;20178;-37
2022/11/18 11:58:20;;;;;;;49.17;29.47;;;;;;;;;;5053960;28;20228;-38
2022/11/18 12:00:52;;;;;;;51.37;30.20;;;;;;;;;;5050601;28;20182;-38
2022/11/18 12:03:36;;;;;;;55.20;32.63;;;;;;;;;;5048493;28;20201;-38
2022/11/18 12:06:02;;;;;;;51.53;31.83;;;;;;;;;;5028107;28;20482;-37
2022/11/18 12:08:32;;;;;;;46.10;28.53;;;;;;;;;;5042823;28;20183;-38
2022/11/18 12:11:17;;;;;;;48.73;30.50;;;;;;;;;;5031485;28;20282;-37
2022/11/18 12:13:53;;;;;;;51.20;31.20;;;;;;;;;;5009456;28;20260;-38
2022/11/18 12:16:31;;;;;;;51.40;31.67;;;;;;;;;;5048018;28;20182;-38
2022/11/18 12:18:58;;;;;;;53.27;32.80;;;;;;;;;;5051109;28;20989;-37
2022/11/18 12:21:46;;;;;;;53.80;33.30;;;;;;;;;;5049804;28;20947;-38
2022/11/18 12:24:30;;;;;;;62.13;37.13;;;;;;;;;;5053610;28;20683;-40
2022/11/18 12:26:57;;;;;;;68.80;38.20;;;;;;;;;;5050126;28;20258;-38
2022/11/18 12:29:25;;;;;;;65.13;38.47;;;;;;;;;;5050362;28;20175;-38
2022/11/18 12:31:53;;;;;;;64.60;36.87;;;;;;;;;;5052809;28;20216;-38
2022/11/18 12:34:28;;;;;;;61.40;36.70;;;;;;;;;;5029990;28;20196;-38
2022/11/18 12:36:55;;;;;;;59.80;35.47;;;;;;;;;;5048423;28;20175;-38
2022/11/18 12:39:24;;;;;;;57.33;34.73;;;;;;;;;;5050414;28;20176;-38
2022/11/18 12:44:36;;;;;;;57.17;33.00;;;;;;;;;;5052345;28;20673;-38
2022/11/18 12:47:12;;;;;;;52.83;31.30;;;;;;;;;;5046961;28;21209;-37
2022/11/18 12:49:38;;;;;;;51.57;30.83;;;;;;;;;;5053015;28;20171;-37
2022/11/18 12:52:05;;;;;;;52.57;32.03;;;;;;;;;;5052245;28;20301;-38
2022/11/18 12:54:40;;;;;;;48.67;30.07;;;;;;;;;;5048952;28;20206;-37
2022/11/18 12:57:18;;;;;;;50.33;30.07;;;;;;;;;;5051385;28;20163;-38
2022/11/18 12:59:44;;;;;;;55.37;32.80;;;;;;;;;;5053356;28;20177;-37
2022/11/18 13:02:10;;;;;;;56.37;33.67;;;;;;;;;;5054459;28;20206;-38
2022/11/18 13:04:37;;;;;;;54.47;32.33;;;;;;;;;;5051477;28;21085;-38
2022/11/18 13:07:05;;;;;;;56.80;34.10;;;;;;;;;;5054943;28;20868;-38
2022/11/18 13:09:33;;;;;;;58.03;33.10;;;;;;;;;;5055315;28;20167;-38
2022/11/18 13:12:01;;;;;;;48.87;31.70;;;;;;;;;;5053096;28;20894;-38
2022/11/18 13:20:29;;;;;;;44.43;27.57;;;;;;;;;;5048393;28;20191;-38
2022/11/18 13:25:44;;;;;;;48.20;28.97;;;;;;;;;;5053684;28;20246;-37
2022/11/18 13:28:36;;;;;;;51.37;29.97;;;;;;;;;;5048529;28;20167;-38
2022/11/18 13:31:09;;;;;;;48.73;30.37;;;;;;;;;;5050064;28;20179;-37
2022/11/18 13:33:36;;;;;;;48.03;30.03;;;;;;;;;;5051551;28;20206;-37
2022/11/18 13:36:02;;;;;;;48.20;30.17;;;;;;;;;;5051790;28;20943;-37
2022/11/18 13:38:28;;;;;;;54.17;30.67;;;;;;;;;;5052100;28;20938;-37
2022/11/18 13:41:05;;;;;;;50.93;31.10;;;;;;;;;;5055316;28;20229;-37
2022/11/18 13:43:32;;;;;;;50.60;31.43;;;;;;;;;;5032403;28;20191;-37
2022/11/18 13:46:03;;;;;;;53.00;31.33;;;;;;;;;;5053244;28;20175;-37
2022/11/18 13:48:30;;;;;;;46.47;30.67;;;;;;;;;;5057632;28;20167;-38
2022/11/18 13:50:58;;;;;;;48.30;30.37;;;;;;;;;;5051955;28;20282;-38
2022/11/18 13:53:33;;;;;;;50.30;31.07;;;;;;;;;;5053756;28;20190;-37
2022/11/18 13:56:05;;;;;;;53.97;32.57;;;;;;;;;;5054026;28;20188;-37
2022/11/18 13:58:31;;;;;;;49.83;31.30;;;;;;;;;;5053080;28;20294;-37
2022/11/18 14:01:02;;;;;;;49.10;30.83;;;;;;;;;;5053561;28;20618;-37
2022/11/18 14:03:47;;;;;;;50.60;31.03;;;;;;;;;;5053005;28;21015;-37
2022/11/18 14:06:23;;;;;;;56.13;31.07;;;;;;;;;;5052673;28;20206;-38
2022/11/18 14:08:49;;;;;;;47.33;29.93;;;;;;;;;;5055762;28;20169;-37
2022/11/18 14:11:33;;;;;;;49.43;32.00;;;;;;;;;;5054885;28;20167;-37
2022/11/18 14:13:59;;;;;;;50.77;31.23;;;;;;;;;;5055682;28;20182;-38
2022/11/18 14:16:32;;;;;;;55.63;34.47;;;;;;;;;;5055470;28;20380;-37
2022/11/18 14:18:58;;;;;;;51.40;33.07;;;;;;;;;;5053793;28;20286;-37
2022/11/18 14:21:31;;;;;;;54.37;32.57;;;;;;;;;;5052843;28;20614;-37
2022/11/18 14:23:57;;;;;;;52.60;32.83;;;;;;;;;;5057464;28;20202;-37
2022/11/18 14:26:31;;;;;;;55.20;33.40;;;;;;;;;;5050916;28;20241;-37
2022/11/18 14:28:58;;;;;;;54.80;33.97;;;;;;;;;;5051595;28;20220;-37
2022/11/18 14:31:29;;;;;;;52.53;32.30;;;;;;;;;;5054358;28;20254;-37
2022/11/18 14:34:20;;;;;;;53.67;33.30;;;;;;;;;;5053344;28;20180;-37
2022/11/18 14:36:46;;;;;;;52.17;31.87;;;;;;;;;;5054028;28;20187;-38
2022/11/18 14:39:23;;;;;;;52.90;33.43;;;;;;;;;;5053478;28;20178;-37
2022/11/18 14:41:50;;;;;;;53.43;33.93;;;;;;;;;;5054608;28;20175;-37
2022/11/18 14:44:20;;;;;;;56.80;34.23;;;;;;;;;;5049484;28;20285;-37
2022/11/18 14:46:48;;;;;;;56.43;34.17;;;;;;;;;;5054897;28;20167;-37
2022/11/18 14:49:18;;;;;;;54.00;33.07;;;;;;;;;;5053063;28;20528;-37